Port Coquitlam, Canada
Current Conditions -  °F | °C
As of 6:00 PM on Friday 19 Dec 2014 (Local Time) from CYVR Reporting Station
Overcast Overcast  
Wind Chill: 41°   Ceiling: 9500
Heat Index: 46°   Visibility: 15mi
Dew Point: 45°   Wind: 10mph
Humidity: 93%   Direction: 90°E
Pressure: 29.9"   Gusts: NA
Location:  49.26°N, 122.78°W
Report Text: CYVR 200200Z 09009KT 15SM FEW015 FEW030 SCT060 BKN095 OVC110 08/07 A2990 RMK SC1SC1SC2AC2AC2 SLP126
Loading
Personal Weather Stations






























Interactive Weather Map New forecast layout! Learn more

10-Day Weather Forecast

Advertisements
Track Severe Weather on mobile